Bei Facebook empfehlenBei Twitter postenGoogle plusPinterest

Das Wetter im Erzgebirge am 21.05.2016

Wetter und Klima am 21.05.2016 Holzhau im Erzgebirge (630m ü.NN)
Letzte gemessene Temperatur und Uhrzeit der Messung23:45:00 Uhr8.40 °C
Temperatur (Maximum / Höchstwert) und Uhrzeit der Messung15:30:00 Uhr22.20 °C
Temperatur (Minimum / Tiefstwert) und Uhrzeit der Messung03:45:004.80 °C
Errechneter Absolutwert der Temperaturschwankungen zwischen Tmin und Tmax des Tages17.40 K
Errechnete Tagesmitteltemperatur14.13542 °C
Gesamt - Niederschlag des Tages (in flüssiger Form)0.00 Liter / m²
Luftdruck (Maximum / Höchstwert) und Zeitpunkt der Messung00:45:00 Uhr1016.30 hPa
Luftdruck (Minimum / Tiefstwert) und Zeitpunkt der Messung23:45:00 Uhr1014.30 hPa
Errechneter Absolutwert der Luftdruckschwankungen des Tages2.00 hPa
Höchste gemessene Windgeschwindigkeit und Uhrzeit der Messung23:45:00 Uhr0.00 km/h
Errechnete Windhäufigkeit in Relation zu den Messwerten des Tages0.00000 %
Niedrigste Windkühle (Windchill) und Zeitpunkt der Messung03:45:00 Uhr4.80 °C
Taupunkt (Maximum / Höchstwert) und Uhrzeit der Messung10:45:00 Uhr12.10 °C
Taupunkt (Minimum / Tiefstwert) und Uhrzeit der Messung03:45:002.70 °C
Anzahl der automatisch eingelesenen Messwerte 96

Detaillierte Wetter- und Klima- Messwerte für den 21.05.2016 in Holzhau im Erzgebirge (630m ü.NN)
ZeitTemperaturLuftdruckRel. LuftfeuchteWindWindrichtungWindchillTaupunktNiederschlag l/m²
23:45:008.40 °C1014.30 hPa81.00 %5.30 °C 
23:30:008.60 °C1014.30 hPa80.00 %5.40 °C 
23:15:008.80 °C1014.30 hPa80.00 %5.50 °C 
23:00:009.00 °C1014.30 hPa79.00 %5.60 °C 
22:45:009.30 °C1014.30 hPa79.00 %5.90 °C 
22:30:009.40 °C1014.60 hPa78.00 %5.80 °C 
22:15:009.90 °C1014.50 hPa77.00 %6.10 °C 
22:00:0010.20 °C1014.60 hPa76.00 %6.20 °C 
21:45:0010.40 °C1014.70 hPa76.00 %6.40 °C 
21:30:0010.60 °C1014.60 hPa75.00 %6.40 °C 
21:15:0010.60 °C1014.70 hPa74.00 %6.20 °C 
21:00:0010.90 °C1014.60 hPa72.00 %6.10 °C 
20:45:0011.50 °C1014.70 hPa71.00 %6.40 °C 
20:30:0012.20 °C1014.80 hPa70.00 %6.90 °C 
20:15:0012.80 °C1014.50 hPa68.00 %7.00 °C 
20:00:0013.60 °C1014.60 hPa65.00 %7.20 °C 
19:45:0014.60 °C1014.40 hPa64.00 %7.90 °C 
19:30:0015.80 °C1014.50 hPa62.00 %8.50 °C 
19:15:0016.80 °C1014.60 hPa59.00 %8.80 °C 
19:00:0017.70 °C1014.40 hPa56.00 %8.80 °C 
18:45:0018.50 °C1014.50 hPa53.00 %8.70 °C 
18:30:0019.10 °C1014.40 hPa52.00 %9.00 °C 
18:15:0019.50 °C1014.40 hPa51.00 %9.10 °C 
18:00:0019.80 °C1014.60 hPa51.00 %9.40 °C 
17:45:0019.90 °C1014.60 hPa50.00 %9.20 °C 
17:30:0019.90 °C1014.80 hPa49.00 %8.90 °C 
17:15:0020.40 °C1014.80 hPa48.00 %9.00 °C 
17:00:0021.10 °C1014.80 hPa48.00 %9.70 °C 
16:45:0021.20 °C1014.90 hPa49.00 %10.10 °C 
16:30:0021.30 °C1014.80 hPa49.00 %10.20 °C 
16:15:0021.10 °C1015.10 hPa49.00 %10.00 °C 
16:00:0021.30 °C1014.90 hPa49.00 %10.20 °C 
15:45:0021.60 °C1014.80 hPa49.00 %10.40 °C 
15:30:0022.20 °C1014.70 hPa48.00 %10.70 °C 
15:15:0021.60 °C1015.00 hPa49.00 %10.40 °C 
15:00:0021.90 °C1014.80 hPa48.00 %10.40 °C 
14:45:0021.60 °C1014.70 hPa50.00 %10.70 °C 
14:30:0021.20 °C1015.00 hPa50.00 %10.40 °C 
14:15:0021.80 °C1014.90 hPa50.00 %10.90 °C 
14:00:0021.20 °C1015.00 hPa52.00 %11.00 °C 
13:45:0021.40 °C1015.20 hPa52.00 %11.10 °C 
13:30:0020.70 °C1015.10 hPa54.00 %11.10 °C 
13:15:0019.90 °C1015.30 hPa54.00 %10.30 °C 
13:00:0020.10 °C1015.20 hPa54.00 %10.50 °C 
12:45:0019.80 °C1015.20 hPa54.00 %10.20 °C 
12:30:0019.60 °C1015.30 hPa52.00 %9.50 °C 
12:15:0020.40 °C1015.50 hPa52.00 %10.20 °C 
12:00:0020.60 °C1015.60 hPa52.00 %10.40 °C 
11:45:0021.40 °C1015.20 hPa53.00 %11.40 °C 
11:30:0021.20 °C1015.60 hPa54.00 %11.50 °C 
11:15:0020.20 °C1015.70 hPa55.00 %10.90 °C 
11:00:0020.30 °C1015.70 hPa56.00 %11.20 °C 
10:45:0020.40 °C1015.60 hPa59.00 %12.10 °C 
10:30:0019.40 °C1015.60 hPa61.00 %11.70 °C 
10:15:0018.90 °C1015.80 hPa62.00 %11.50 °C 
10:00:0018.20 °C1015.80 hPa63.00 %11.00 °C 
09:45:0018.50 °C1015.90 hPa62.00 %11.10 °C 
09:30:0018.80 °C1016.00 hPa64.00 %11.90 °C 
09:15:0017.90 °C1016.10 hPa65.00 %11.20 °C 
09:00:0017.40 °C1016.00 hPa65.00 %10.80 °C 
08:45:0017.10 °C1016.00 hPa65.00 %10.50 °C 
08:30:0017.40 °C1016.10 hPa65.00 %10.80 °C 
08:15:0016.90 °C1016.10 hPa66.00 %10.50 °C 
08:00:0016.90 °C1016.00 hPa68.00 %11.00 °C 
07:45:0016.00 °C1016.00 hPa69.00 %10.30 °C 
07:30:0016.10 °C1015.90 hPa70.00 %10.60 °C 
07:15:0016.40 °C1015.70 hPa72.00 %11.30 °C 
07:00:0015.90 °C1015.70 hPa78.00 %12.10 °C 
06:45:0013.60 °C1015.70 hPa82.00 %10.60 °C 
06:30:0012.20 °C1015.80 hPa84.00 %9.60 °C 
06:15:0010.30 °C1015.90 hPa88.00 %8.40 °C 
06:00:007.90 °C1015.80 hPa88.00 %6.00 °C 
05:45:006.80 °C1016.00 hPa89.00 %5.10 °C 
05:30:005.90 °C1016.10 hPa88.00 %4.10 °C 
05:15:005.60 °C1016.20 hPa88.00 %3.80 °C 
05:00:005.40 °C1016.10 hPa87.00 %3.40 °C 
04:45:005.50 °C1016.10 hPa87.00 %3.50 °C 
04:30:005.30 °C1016.00 hPa87.00 %3.30 °C 
04:15:005.10 °C1016.10 hPa87.00 %3.10 °C 
04:00:004.90 °C1016.10 hPa87.00 %2.90 °C 
03:45:004.80 °C1016.00 hPa86.00 %2.70 °C 
03:30:004.90 °C1015.90 hPa86.00 %2.80 °C 
03:15:005.20 °C1015.90 hPa86.00 %3.10 °C 
03:00:005.30 °C1015.90 hPa85.00 %3.00 °C 
02:45:005.50 °C1016.00 hPa85.00 %3.20 °C 
02:30:005.60 °C1016.10 hPa84.00 %3.10 °C 
02:15:005.90 °C1016.00 hPa84.00 %3.40 °C 
02:00:006.10 °C1015.90 hPa84.00 %3.60 °C 
01:45:006.20 °C1016.00 hPa84.00 %3.70 °C 
01:30:006.20 °C1016.10 hPa84.00 %3.70 °C 
01:15:006.10 °C1016.10 hPa83.00 %3.40 °C 
01:00:006.10 °C1016.10 hPa83.00 %3.40 °C 
00:45:006.10 °C1016.30 hPa82.00 %3.30 °C 
00:30:006.20 °C1016.20 hPa81.00 %3.20 °C 
00:15:006.50 °C1016.10 hPa81.00 %3.50 °C 
00:00:006.70 °C1016.30 hPa80.00 %3.50 °C 

Permanenter Link zu dieser Seite: Wetter im Erzgebirge am 21.05.2016
Performance-Info: Die Erstellung der Seite / Statistik(en) / Tabelle(n) erforderte 5 Datenbankserver-Abfrage(n) und dauerte 101 Millisekunden. (Dieser Messwert ist von der Gesamt-Auslastung des Servers abhängig.)
Erzgebirge - Wetter | Erzgebirge - Wetter (Mobilgeräte) | Komplette Klimadatenbank